createdAt,value
2022-08-21T00:02:06.896Z,20.47
2022-08-21T00:04:37.624Z,20.48
2022-08-21T00:07:17.503Z,20.48
2022-08-21T00:09:46.365Z,20.48
2022-08-21T00:12:15.073Z,20.48
2022-08-21T00:14:44.902Z,20.49
2022-08-21T00:17:16.003Z,20.49
2022-08-21T00:19:47.582Z,20.51
2022-08-21T00:22:15.957Z,20.51
2022-08-21T00:24:44.703Z,20.49
2022-08-21T00:27:13.352Z,20.50
2022-08-21T00:29:41.989Z,20.48
2022-08-21T00:32:10.864Z,20.45
2022-08-21T00:34:39.850Z,20.43
2022-08-21T00:37:10.302Z,20.40
2022-08-21T00:39:39.234Z,20.39
2022-08-21T00:42:08.191Z,20.36
2022-08-21T00:44:38.981Z,20.37
2022-08-21T00:47:07.758Z,20.38
2022-08-21T00:49:36.521Z,20.39
2022-08-21T00:52:06.614Z,20.37
2022-08-21T00:54:37.070Z,20.39
2022-08-21T00:57:18.613Z,20.37
2022-08-21T00:59:51.925Z,20.37
2022-08-21T01:02:25.855Z,20.35
2022-08-21T01:04:57.009Z,20.29
2022-08-21T01:07:28.979Z,20.26
2022-08-21T01:09:59.954Z,20.25
2022-08-21T01:12:29.835Z,20.21
2022-08-21T01:14:59.907Z,20.19
2022-08-21T01:17:30.297Z,20.14
2022-08-21T01:20:00.388Z,20.14
2022-08-21T01:22:30.763Z,20.10
2022-08-21T01:24:59.682Z,20.08
2022-08-21T01:27:28.738Z,20.04
2022-08-21T01:30:00.876Z,19.98
2022-08-21T01:32:30.763Z,19.99
2022-08-21T01:34:59.608Z,19.98
2022-08-21T01:37:28.838Z,19.96
2022-08-21T01:39:59.022Z,19.95
2022-08-21T01:42:28.351Z,19.92
2022-08-21T01:44:57.741Z,19.88
2022-08-21T01:47:26.308Z,19.82
2022-08-21T01:49:55.454Z,19.84
2022-08-21T01:52:24.443Z,19.82
2022-08-21T01:54:55.212Z,19.82
2022-08-21T01:57:26.614Z,19.82
2022-08-21T01:59:55.893Z,19.77
2022-08-21T02:02:24.488Z,19.75
2022-08-21T02:04:53.327Z,19.75
2022-08-21T02:07:22.396Z,19.71
2022-08-21T02:09:50.944Z,19.70
2022-08-21T02:12:19.823Z,19.68
2022-08-21T02:14:51.869Z,19.65
2022-08-21T02:17:20.674Z,19.62
2022-08-21T02:19:49.308Z,19.61
2022-08-21T02:22:18.316Z,19.61
2022-08-21T02:24:54.731Z,19.55
2022-08-21T02:27:26.100Z,19.59
2022-08-21T02:29:59.630Z,19.55
2022-08-21T02:32:28.676Z,19.54
2022-08-21T02:34:57.829Z,19.52
2022-08-21T02:37:27.043Z,19.50
2022-08-21T02:39:55.854Z,19.48
2022-08-21T02:42:25.662Z,19.48
2022-08-21T02:44:56.539Z,19.49
2022-08-21T02:47:27.341Z,19.48
2022-08-21T02:49:56.111Z,19.48
2022-08-21T02:52:25.538Z,19.45
2022-08-21T02:54:57.410Z,19.44
2022-08-21T02:57:27.121Z,19.44
2022-08-21T02:59:56.360Z,19.44
2022-08-21T03:02:29.745Z,19.44
2022-08-21T03:04:58.568Z,19.44
2022-08-21T03:07:27.915Z,19.41
2022-08-21T03:09:56.666Z,19.41
2022-08-21T03:12:26.595Z,19.38
2022-08-21T03:14:58.958Z,19.37
2022-08-21T03:17:30.128Z,19.29
2022-08-21T03:19:59.859Z,19.30
2022-08-21T03:22:29.489Z,19.28
2022-08-21T03:25:00.474Z,19.25
2022-08-21T03:27:33.157Z,19.25
2022-08-21T03:30:03.735Z,19.24
2022-08-21T03:32:34.278Z,19.25
2022-08-21T03:35:03.059Z,19.25
2022-08-21T03:37:32.057Z,19.23
2022-08-21T03:40:00.832Z,19.23
2022-08-21T03:42:30.260Z,19.23
2022-08-21T03:44:59.306Z,19.23
2022-08-21T03:47:28.476Z,19.25
2022-08-21T03:49:58.619Z,19.25
2022-08-21T03:52:27.837Z,19.29
2022-08-21T03:54:57.350Z,19.27
2022-08-21T03:57:26.119Z,19.29
2022-08-21T03:59:55.487Z,19.33
2022-08-21T04:02:25.140Z,19.34
2022-08-21T04:04:54.250Z,19.37
2022-08-21T04:07:24.417Z,19.40
2022-08-21T04:09:53.314Z,19.45
2022-08-21T04:12:23.499Z,19.49
2022-08-21T04:14:53.350Z,19.52
2022-08-21T04:17:22.812Z,19.58
2022-08-21T04:19:53.855Z,19.61
2022-08-21T04:22:24.312Z,19.67
2022-08-21T04:24:53.333Z,19.73
2022-08-21T04:27:22.175Z,19.78
2022-08-21T04:29:50.866Z,19.79
2022-08-21T04:32:25.284Z,19.84
2022-08-21T04:35:02.256Z,19.89
2022-08-21T04:37:32.904Z,19.92
2022-08-21T04:40:01.870Z,19.97
2022-08-21T04:42:31.365Z,20.04
2022-08-21T04:45:01.958Z,20.07
2022-08-21T04:47:52.843Z,20.10
2022-08-21T04:50:20.078Z,20.16
2022-08-21T04:53:09.732Z,20.20
2022-08-21T04:55:39.548Z,20.24
2022-08-21T04:58:10.541Z,20.26
2022-08-21T05:00:40.106Z,20.31
2022-08-21T05:03:12.115Z,20.35
2022-08-21T05:05:42.111Z,20.41
2022-08-21T05:08:16.707Z,20.45
2022-08-21T05:10:46.388Z,20.52
2022-08-21T05:13:17.699Z,20.53
2022-08-21T05:15:46.563Z,20.60
2022-08-21T05:18:15.207Z,20.61
2022-08-21T05:20:45.800Z,20.65
2022-08-21T05:23:17.125Z,20.68
2022-08-21T05:25:46.678Z,20.74
2022-08-21T05:28:19.644Z,20.79
2022-08-21T05:30:49.137Z,20.82
2022-08-21T05:33:17.859Z,20.86
2022-08-21T05:35:47.922Z,20.92
2022-08-21T05:38:19.574Z,20.98
2022-08-21T05:40:49.260Z,21.06
2022-08-21T05:43:18.540Z,21.12
2022-08-21T05:45:48.612Z,21.17
2022-08-21T05:48:19.281Z,21.23
2022-08-21T05:50:49.999Z,21.34
2022-08-21T05:53:22.312Z,21.41
2022-08-21T05:55:51.213Z,21.50
2022-08-21T05:58:22.025Z,21.60
2022-08-21T06:00:53.075Z,21.71
2022-08-21T06:03:24.042Z,21.81
2022-08-21T06:05:53.996Z,21.89
2022-08-21T06:08:24.900Z,21.93
2022-08-21T06:10:55.319Z,22.01
2022-08-21T06:13:25.124Z,22.08
2022-08-21T06:16:04.384Z,22.16
2022-08-21T06:18:33.316Z,22.26
2022-08-21T06:21:02.472Z,22.33
2022-08-21T06:23:34.070Z,22.36
2022-08-21T06:26:03.589Z,22.47
2022-08-21T06:28:33.418Z,22.55
2022-08-21T06:31:02.286Z,22.69
2022-08-21T06:33:33.867Z,22.80
2022-08-21T06:36:02.654Z,22.89
2022-08-21T06:38:33.132Z,23.02
2022-08-21T06:41:02.104Z,23.10
2022-08-21T06:43:39.605Z,23.26
2022-08-21T06:46:09.896Z,23.42
2022-08-21T06:48:38.770Z,23.56
2022-08-21T06:51:07.562Z,23.72
2022-08-21T06:53:38.108Z,23.86
2022-08-21T06:56:07.720Z,24.03
2022-08-21T06:58:37.004Z,24.16
2022-08-21T07:01:06.522Z,24.24
2022-08-21T07:03:37.693Z,24.30
2022-08-21T07:06:07.583Z,24.33
2022-08-21T07:08:38.908Z,24.43
2022-08-21T07:11:11.415Z,24.48
2022-08-21T07:13:41.426Z,24.59
2022-08-21T07:16:10.103Z,24.68
2022-08-21T07:18:39.298Z,24.79
2022-08-21T07:21:10.308Z,24.86
2022-08-21T07:23:44.341Z,24.92
2022-08-21T07:26:13.182Z,25.03
2022-08-21T07:28:41.950Z,25.10
2022-08-21T07:31:14.785Z,25.20
2022-08-21T07:33:45.472Z,25.35
2022-08-21T07:36:14.376Z,25.48
2022-08-21T07:38:44.631Z,25.53
2022-08-21T07:41:18.104Z,25.63
2022-08-21T07:43:48.092Z,25.71
2022-08-21T07:46:17.623Z,25.91
2022-08-21T07:48:48.865Z,26.03
2022-08-21T07:51:24.662Z,26.07
2022-08-21T07:53:56.329Z,26.16
2022-08-21T07:56:26.062Z,26.28
2022-08-21T07:58:54.658Z,26.40
2022-08-21T08:01:23.572Z,26.53
2022-08-21T08:03:53.294Z,26.63
2022-08-21T08:06:22.103Z,26.73
2022-08-21T08:08:51.261Z,26.75
2022-08-21T08:11:21.411Z,26.84
2022-08-21T08:13:53.419Z,26.96
2022-08-21T08:16:22.256Z,27.04
2022-08-21T08:18:53.448Z,27.15
2022-08-21T08:21:24.335Z,27.24
2022-08-21T08:24:18.502Z,27.36
2022-08-21T08:26:53.547Z,27.46
2022-08-21T08:29:24.258Z,27.52
2022-08-21T08:31:53.593Z,27.62
2022-08-21T08:34:25.667Z,27.69
2022-08-21T08:36:55.790Z,27.77
2022-08-21T08:39:26.825Z,27.80
2022-08-21T08:42:34.067Z,27.85
2022-08-21T08:45:01.298Z,27.94
2022-08-21T08:47:32.290Z,28.05
2022-08-21T08:50:06.286Z,28.21
2022-08-21T08:52:41.962Z,28.35
2022-08-21T08:55:15.376Z,28.50
2022-08-21T08:57:51.430Z,28.53
2022-08-21T09:00:22.145Z,28.64
2022-08-21T09:02:55.467Z,28.79
2022-08-21T09:05:28.226Z,28.95
2022-08-21T09:08:18.078Z,29.11
2022-08-21T09:10:58.126Z,29.30
2022-08-21T09:13:43.576Z,29.45
2022-08-21T09:16:20.969Z,29.34
2022-08-21T09:19:00.642Z,29.46
2022-08-21T09:21:42.048Z,29.64
2022-08-21T09:24:34.019Z,29.78
2022-08-21T09:27:11.967Z,29.88
2022-08-21T09:29:44.582Z,29.97
2022-08-21T09:32:20.310Z,30.02
2022-08-21T09:35:01.870Z,29.96
2022-08-21T09:37:33.183Z,30.09
2022-08-21T09:40:01.855Z,30.31
2022-08-21T09:42:34.262Z,30.41
2022-08-21T09:45:15.815Z,30.48
2022-08-21T09:47:46.822Z,30.72
2022-08-21T09:50:19.234Z,30.94
2022-08-21T09:52:58.159Z,31.08
2022-08-21T09:55:52.937Z,31.15
2022-08-21T09:58:23.277Z,30.68
2022-08-21T10:01:02.374Z,30.02
2022-08-21T10:03:31.705Z,29.66
2022-08-21T10:06:03.162Z,29.88
2022-08-21T10:08:37.599Z,30.30
2022-08-21T10:11:09.100Z,30.72
2022-08-21T10:13:59.029Z,30.98
2022-08-21T10:16:39.695Z,31.09
2022-08-21T10:19:18.302Z,30.92
2022-08-21T10:22:01.349Z,30.43
2022-08-21T10:24:34.726Z,29.82
2022-08-21T10:27:14.757Z,29.35
2022-08-21T10:29:54.449Z,29.01
2022-08-21T10:32:37.851Z,28.78
2022-08-21T10:35:14.612Z,28.57
2022-08-21T10:38:00.339Z,28.67
2022-08-21T10:40:37.475Z,29.24
2022-08-21T10:43:19.162Z,29.96
2022-08-21T10:45:59.586Z,30.51
2022-08-21T10:48:38.108Z,30.78
2022-08-21T10:51:13.150Z,30.99
2022-08-21T10:54:02.648Z,31.15
2022-08-21T10:56:33.681Z,31.33
2022-08-21T10:59:21.353Z,31.56
2022-08-21T11:01:55.388Z,31.81
2022-08-21T11:04:49.432Z,31.95
2022-08-21T11:07:24.997Z,32.13
2022-08-21T11:10:04.231Z,32.31
2022-08-21T11:12:41.202Z,32.43
2022-08-21T11:15:37.790Z,31.98
2022-08-21T11:18:23.866Z,31.15
2022-08-21T11:21:04.027Z,30.77
2022-08-21T11:23:44.611Z,30.85
2022-08-21T11:26:20.124Z,30.84
2022-08-21T11:28:56.799Z,30.49
2022-08-21T11:31:48.303Z,30.28
2022-08-21T11:34:24.739Z,30.25
2022-08-21T11:37:04.914Z,30.06
2022-08-21T11:39:51.202Z,29.90
2022-08-21T11:42:26.862Z,29.64
2022-08-21T11:45:05.167Z,29.48
2022-08-21T11:47:52.117Z,29.61
2022-08-21T11:50:34.576Z,30.07
2022-08-21T11:53:13.773Z,30.59
2022-08-21T11:55:47.164Z,30.84
2022-08-21T11:58:25.354Z,31.07
2022-08-21T12:00:58.350Z,31.26
2022-08-21T12:03:30.125Z,31.46
2022-08-21T12:06:02.799Z,31.72
2022-08-21T12:08:39.552Z,31.92
2022-08-21T12:11:11.487Z,31.98
2022-08-21T12:13:42.714Z,31.60
2022-08-21T12:16:14.547Z,31.25
2022-08-21T12:18:44.513Z,31.31
2022-08-21T12:21:34.140Z,31.26
2022-08-21T12:24:20.989Z,30.80
2022-08-21T12:26:53.757Z,30.38
2022-08-21T12:29:28.014Z,30.25
2022-08-21T12:32:00.206Z,30.26
2022-08-21T12:34:41.004Z,30.19
2022-08-21T12:37:20.425Z,30.40
2022-08-21T12:39:55.508Z,30.50
2022-08-21T12:42:30.343Z,30.67
2022-08-21T12:45:04.951Z,30.80
2022-08-21T12:47:41.961Z,30.87
2022-08-21T12:50:15.209Z,30.99
2022-08-21T12:52:51.190Z,30.76
2022-08-21T12:55:29.928Z,30.73
2022-08-21T12:58:00.554Z,31.11
2022-08-21T13:00:32.312Z,31.53
2022-08-21T13:03:03.132Z,31.89
2022-08-21T13:05:35.175Z,31.71
2022-08-21T13:08:09.221Z,31.20
2022-08-21T13:10:41.982Z,30.66
2022-08-21T13:13:16.283Z,30.11
2022-08-21T13:16:00.898Z,29.90
2022-08-21T13:18:32.904Z,30.10
2022-08-21T13:21:10.761Z,30.37
2022-08-21T13:23:39.890Z,30.41
2022-08-21T13:26:18.750Z,30.25
2022-08-21T13:28:49.038Z,30.18
2022-08-21T13:31:22.647Z,30.12
2022-08-21T13:33:52.010Z,30.08
2022-08-21T13:36:27.259Z,29.82
2022-08-21T13:38:57.031Z,29.45
2022-08-21T13:41:31.454Z,29.20
2022-08-21T13:44:02.911Z,29.19
2022-08-21T13:46:35.224Z,29.27
2022-08-21T13:49:07.275Z,29.66
2022-08-21T13:51:37.153Z,30.01
2022-08-21T13:54:18.785Z,30.17
2022-08-21T13:56:49.579Z,30.30
2022-08-21T13:59:28.284Z,30.44
2022-08-21T14:02:01.566Z,30.53
2022-08-21T14:04:37.356Z,30.67
2022-08-21T14:07:18.812Z,30.51
2022-08-21T14:09:48.337Z,30.13
2022-08-21T14:12:25.646Z,29.82
2022-08-21T14:14:57.288Z,29.55
2022-08-21T14:17:34.195Z,29.31
2022-08-21T14:20:04.066Z,29.04
2022-08-21T14:22:44.715Z,28.87
2022-08-21T14:25:15.869Z,28.93
2022-08-21T14:27:53.450Z,29.12
2022-08-21T14:30:29.284Z,29.32
2022-08-21T14:32:58.755Z,29.35
2022-08-21T14:35:27.530Z,29.28
2022-08-21T14:37:57.128Z,29.24
2022-08-21T14:40:27.130Z,29.20
2022-08-21T14:42:59.159Z,29.18
2022-08-21T14:45:29.854Z,29.14
2022-08-21T14:48:00.340Z,29.08
2022-08-21T14:50:29.072Z,29.10
2022-08-21T14:52:58.229Z,29.08
2022-08-21T14:55:28.464Z,28.89
2022-08-21T14:57:59.160Z,28.79
2022-08-21T15:00:35.957Z,28.79
2022-08-21T15:03:09.382Z,28.77
2022-08-21T15:05:38.224Z,28.73
2022-08-21T15:08:06.656Z,28.67
2022-08-21T15:10:44.244Z,28.58
2022-08-21T15:13:27.027Z,28.54
2022-08-21T15:15:57.028Z,28.53
2022-08-21T15:18:27.892Z,28.48
2022-08-21T15:20:57.381Z,28.37
2022-08-21T15:23:26.908Z,28.25
2022-08-21T15:25:58.653Z,28.17
2022-08-21T15:28:31.716Z,28.05
2022-08-21T15:31:03.174Z,27.92
2022-08-21T15:33:31.718Z,27.78
2022-08-21T15:36:00.681Z,27.74
2022-08-21T15:38:29.818Z,27.74
2022-08-21T15:40:58.680Z,27.75
2022-08-21T15:43:31.276Z,27.69
2022-08-21T15:46:01.756Z,27.63
2022-08-21T15:48:30.686Z,27.59
2022-08-21T15:50:59.082Z,27.50
2022-08-21T15:53:27.973Z,27.44
2022-08-21T15:55:56.904Z,27.41
2022-08-21T15:58:25.357Z,27.35
2022-08-21T16:00:55.640Z,27.27
2022-08-21T16:03:24.834Z,27.14
2022-08-21T16:05:56.764Z,26.98
2022-08-21T16:08:26.168Z,26.90
2022-08-21T16:10:56.986Z,26.81
2022-08-21T16:13:29.321Z,26.71
2022-08-21T16:15:59.542Z,26.63
2022-08-21T16:18:29.117Z,26.51
2022-08-21T16:20:57.918Z,26.43
2022-08-21T16:23:26.542Z,26.34
2022-08-21T16:25:59.853Z,26.22
2022-08-21T16:28:28.935Z,26.13
2022-08-21T16:30:59.437Z,26.08
2022-08-21T16:33:34.018Z,25.98
2022-08-21T16:36:03.462Z,25.88
2022-08-21T16:38:33.581Z,25.82
2022-08-21T16:41:06.274Z,25.72
2022-08-21T16:43:36.030Z,25.65
2022-08-21T16:46:07.021Z,25.57
2022-08-21T16:48:36.547Z,25.49
2022-08-21T16:51:06.750Z,25.41
2022-08-21T16:53:35.571Z,25.33
2022-08-21T16:56:04.536Z,25.26
2022-08-21T16:58:36.105Z,25.18
2022-08-21T17:01:07.784Z,25.07
2022-08-21T17:03:41.361Z,25.04
2022-08-21T17:06:10.731Z,24.99
2022-08-21T17:08:39.989Z,24.93
2022-08-21T17:11:36.599Z,24.85
2022-08-21T17:14:09.778Z,24.80
2022-08-21T17:16:41.014Z,24.74
2022-08-21T17:19:09.971Z,24.68
2022-08-21T17:21:38.800Z,24.60
2022-08-21T17:24:07.718Z,24.52
2022-08-21T17:26:36.878Z,24.43
2022-08-21T17:29:10.048Z,24.40
2022-08-21T17:31:44.164Z,24.36
2022-08-21T17:34:13.765Z,24.32
2022-08-21T17:36:45.124Z,24.26
2022-08-21T17:39:22.222Z,24.20
2022-08-21T17:42:09.975Z,24.13
2022-08-21T17:44:45.749Z,24.02
2022-08-21T17:47:19.628Z,23.95
2022-08-21T17:49:48.587Z,23.85
2022-08-21T17:52:17.666Z,23.82
2022-08-21T17:54:46.639Z,23.73
2022-08-21T17:57:22.891Z,23.66
2022-08-21T17:59:55.272Z,23.56
2022-08-21T18:02:30.740Z,23.46
2022-08-21T18:05:04.014Z,23.37
2022-08-21T18:07:33.049Z,23.35
2022-08-21T18:10:02.729Z,23.31
2022-08-21T18:12:32.398Z,23.29
2022-08-21T18:15:02.385Z,23.25
2022-08-21T18:17:33.941Z,23.19
2022-08-21T18:20:05.232Z,23.13
2022-08-21T18:22:34.264Z,23.03
2022-08-21T18:25:05.824Z,22.97
2022-08-21T18:27:35.070Z,22.93
2022-08-21T18:30:07.503Z,22.90
2022-08-21T18:32:38.811Z,22.83
2022-08-21T18:35:11.850Z,22.79
2022-08-21T18:37:50.195Z,22.77
2022-08-21T18:40:28.235Z,22.69
2022-08-21T18:42:56.974Z,22.64
2022-08-21T18:45:26.294Z,22.55
2022-08-21T18:47:59.151Z,22.50
2022-08-21T18:50:30.209Z,22.45
2022-08-21T18:53:18.157Z,22.44
2022-08-21T18:55:57.071Z,22.42
2022-08-21T18:58:27.711Z,22.41
2022-08-21T19:00:57.243Z,22.39
2022-08-21T19:03:27.495Z,22.39
2022-08-21T19:05:56.991Z,22.38
2022-08-21T19:08:27.574Z,22.34
2022-08-21T19:11:01.385Z,22.32
2022-08-21T19:13:31.120Z,22.30
2022-08-21T19:16:03.879Z,22.27
2022-08-21T19:18:39.841Z,22.22
2022-08-21T19:21:09.498Z,22.20
2022-08-21T19:26:29.895Z,22.14
2022-08-21T19:29:02.232Z,22.11
2022-08-21T19:31:34.088Z,22.06
2022-08-21T19:34:07.331Z,22.07
2022-08-21T19:36:39.344Z,22.04
2022-08-21T19:39:12.261Z,22.01
2022-08-21T19:41:51.207Z,21.98
2022-08-21T19:44:23.226Z,21.93
2022-08-21T19:46:55.118Z,21.91
2022-08-21T19:49:33.286Z,21.85
2022-08-21T19:52:12.978Z,21.79
2022-08-21T19:54:43.456Z,21.71
2022-08-21T19:57:13.828Z,21.67
2022-08-21T19:59:44.370Z,21.68
2022-08-21T20:02:14.735Z,21.67
2022-08-21T20:04:54.102Z,21.63
2022-08-21T20:07:26.861Z,21.64
2022-08-21T20:09:56.563Z,21.57
2022-08-21T20:12:26.127Z,21.56
2022-08-21T20:14:55.914Z,21.55
2022-08-21T20:17:26.252Z,21.54
2022-08-21T20:19:56.757Z,21.48
2022-08-21T20:25:14.749Z,21.42
2022-08-21T20:27:43.814Z,21.41
2022-08-21T20:30:21.458Z,21.39
2022-08-21T20:32:52.800Z,21.38
2022-08-21T20:35:23.707Z,21.37
2022-08-21T20:37:58.481Z,21.37
2022-08-21T20:40:32.752Z,21.38
2022-08-21T20:43:02.783Z,21.40
2022-08-21T20:45:34.665Z,21.42
2022-08-21T20:48:07.043Z,21.41
2022-08-21T20:50:41.208Z,21.41
2022-08-21T20:53:14.989Z,21.42
2022-08-21T20:55:48.406Z,21.42
2022-08-21T20:58:33.551Z,21.41
2022-08-21T21:01:06.758Z,21.41
2022-08-21T21:03:39.438Z,21.43
2022-08-21T21:06:15.610Z,21.43
2022-08-21T21:08:49.896Z,21.43
2022-08-21T21:11:22.541Z,21.42
2022-08-21T21:13:57.324Z,21.38
2022-08-21T21:16:32.542Z,21.36
2022-08-21T21:19:04.170Z,21.29
2022-08-21T21:21:35.856Z,21.24
2022-08-21T21:24:09.248Z,21.24
2022-08-21T21:26:46.247Z,21.23
2022-08-21T21:29:23.872Z,21.20
2022-08-21T21:31:54.488Z,21.18
2022-08-21T21:34:23.870Z,21.15
2022-08-21T21:37:00.941Z,21.12
2022-08-21T21:39:36.064Z,21.09
2022-08-21T21:42:16.056Z,21.05
2022-08-21T21:45:02.588Z,21.04
2022-08-21T21:47:41.280Z,21.01
2022-08-21T21:50:31.193Z,21.00
2022-08-21T21:53:15.423Z,21.00
2022-08-21T21:56:01.399Z,21.01
2022-08-21T21:58:55.288Z,21.01
2022-08-21T22:01:33.469Z,20.95
2022-08-21T22:04:07.673Z,20.91
2022-08-21T22:09:45.210Z,20.85
2022-08-21T22:12:28.844Z,20.83
2022-08-21T22:14:59.134Z,20.83
2022-08-21T22:17:37.301Z,20.85
2022-08-21T22:20:16.329Z,20.86
2022-08-21T22:22:46.645Z,20.84
2022-08-21T22:25:22.245Z,20.85
2022-08-21T22:27:59.116Z,20.84
2022-08-21T22:30:46.553Z,20.87
2022-08-21T22:33:20.166Z,20.89
2022-08-21T22:35:51.665Z,20.94
2022-08-21T22:38:30.774Z,21.00
2022-08-21T22:41:14.484Z,21.05
2022-08-21T22:43:55.395Z,21.09
2022-08-21T22:46:31.840Z,21.12
2022-08-21T22:49:06.937Z,21.17
2022-08-21T22:51:41.162Z,21.17
2022-08-21T22:54:21.942Z,21.17
2022-08-21T22:57:02.416Z,21.15
2022-08-21T22:59:37.791Z,21.10
2022-08-21T23:02:24.260Z,21.06
2022-08-21T23:05:01.001Z,20.99
2022-08-21T23:07:43.456Z,20.93
2022-08-21T23:10:22.410Z,20.87
2022-08-21T23:13:06.196Z,20.83
2022-08-21T23:15:48.481Z,20.75
2022-08-21T23:18:29.961Z,20.71
2022-08-21T23:21:14.110Z,20.72
2022-08-21T23:24:02.146Z,20.76
2022-08-21T23:26:41.704Z,20.76
2022-08-21T23:29:28.415Z,20.78
2022-08-21T23:32:09.700Z,20.79
2022-08-21T23:34:45.756Z,20.82
2022-08-21T23:37:49.271Z,20.83
2022-08-21T23:40:36.490Z,20.86
2022-08-21T23:43:37.999Z,20.89
2022-08-21T23:46:34.105Z,20.88
2022-08-21T23:49:19.156Z,20.91
2022-08-21T23:52:00.260Z,20.94
2022-08-21T23:54:42.419Z,20.96
2022-08-21T23:57:18.913Z,21.02
